Time;durP1;ratioP1;P1;durP2;ratioP2;P2;SDS_P1;SDS_P2;PMS_P1;PMS_P2;Temp;Humidity;BMP_temperature;BMP_pressure;BME280_temperature;BME280_humidity;BME280_pressure;Samples;Min_cycle;Max_cycle;Signal;HPM_P1;HPM_P2
2023/10/08 00:01:28;;;;;;;4.80;2.10;;;16.30;68.70;;;;;;5016806;28;20579;-71
2023/10/08 00:03:58;;;;;;;1.08;0.95;;;16.30;68.60;;;;;;5014364;28;20087;-71
2023/10/08 00:06:24;;;;;;;2.28;1.33;;;16.30;68.50;;;;;;5013572;28;20033;-72
2023/10/08 00:08:50;;;;;;;;;;;16.30;68.70;;;;;;5031102;28;20060;-71
2023/10/08 00:11:17;;;;;;;3.45;1.63;;;16.20;68.40;;;;;;5013273;28;19921;-71
2023/10/08 00:13:44;;;;;;;2.15;1.35;;;16.20;68.60;;;;;;5030528;28;20513;-71
2023/10/08 00:16:17;;;;;;;1.67;0.55;;;16.10;68.80;;;;;;5031239;28;20033;-71
2023/10/08 00:18:50;;;;;;;4.18;2.55;;;16.10;69.50;;;;;;5014102;28;20541;-71
2023/10/08 00:21:37;;;;;;;4.18;1.77;;;16.00;69.50;;;;;;5014307;28;20045;-71
2023/10/08 00:24:06;;;;;;;2.22;1.38;;;16.00;69.60;;;;;;5014367;28;20110;-71
2023/10/08 00:26:35;;;;;;;2.55;1.15;;;15.90;69.60;;;;;;5013836;28;20030;-70
2023/10/08 00:29:16;;;;;;;2.40;1.75;;;15.80;69.60;;;;;;5030330;28;20478;-71
2023/10/08 00:31:45;;;;;;;1.02;0.90;;;15.80;69.90;;;;;;5030603;28;20037;-71
2023/10/08 00:34:12;;;;;;;5.07;1.10;;;15.80;69.80;;;;;;5014232;28;20441;-72
2023/10/08 00:36:41;;;;;;;1.85;1.25;;;15.80;69.30;;;;;;5013444;28;20030;-71
2023/10/08 00:39:13;;;;;;;7.47;2.03;;;15.80;70.00;;;;;;5014070;28;20387;-71
2023/10/08 00:41:43;;;;;;;0.73;0.50;;;15.80;69.90;;;;;;5015506;28;20046;-70
2023/10/08 00:47:16;;;;;;;2.05;1.05;;;15.80;69.90;;;;;;5034803;28;20045;-72
2023/10/08 00:57:26;;;;;;;0.68;0.60;;;15.70;69.80;;;;;;5033612;28;20068;-71
2023/10/08 00:59:57;;;;;;;2.47;0.80;;;15.70;69.80;;;;;;5017478;28;20076;-71
2023/10/08 01:02:42;;;;;;;3.80;1.33;;;15.60;69.00;;;;;;5017210;28;20049;-71
2023/10/08 01:05:11;;;;;;;2.83;1.58;;;15.60;69.60;;;;;;5033561;28;20438;-71
2023/10/08 01:07:40;;;;;;;0.88;0.40;;;15.60;69.70;;;;;;5034613;28;20034;-71
2023/10/08 01:10:11;;;;;;;1.58;0.88;;;15.60;69.20;;;;;;5016661;28;20037;-72
2023/10/08 01:13:01;;;;;;;5.25;1.90;;;15.60;69.10;;;;;;5034574;28;20065;-71
2023/10/08 01:15:35;;;;;;;1.83;1.23;;;15.50;69.80;;;;;;5003349;28;20041;-71
2023/10/08 01:18:14;;;;;;;2.53;1.67;;;15.50;69.80;;;;;;5034706;28;20118;-72
2023/10/08 01:23:21;;;;;;;1.35;0.75;;;15.40;68.70;;;;;;5034578;28;20049;-71
2023/10/08 01:28:36;;;;;;;2.78;1.05;;;15.20;69.00;;;;;;5033341;28;20049;-72
2023/10/08 01:31:06;;;;;;;1.55;1.40;;;15.20;68.60;;;;;;5015730;28;20033;-70
2023/10/08 01:33:46;;;;;;;0.90;0.60;;;15.20;69.60;;;;;;5016579;28;20175;-70
2023/10/08 01:36:12;;;;;;;3.25;1.85;;;15.10;70.00;;;;;;5032870;28;20034;-70
2023/10/08 01:38:39;;;;;;;;;;;15.10;70.00;;;;;;5034880;28;20034;-71
2023/10/08 01:43:52;;;;;;;0.93;0.73;;;15.10;69.80;;;;;;5034533;28;20196;-71
2023/10/08 01:46:21;;;;;;;2.63;1.60;;;15.10;70.10;;;;;;5033634;28;20466;-71
2023/10/08 01:48:53;;;;;;;1.58;0.93;;;15.10;70.00;;;;;;5016330;28;20128;-71
2023/10/08 01:51:24;;;;;;;1.58;0.60;;;15.10;69.80;;;;;;5032195;28;20037;-70
2023/10/08 01:54:10;;;;;;;1.02;0.93;;;15.10;69.90;;;;;;5033065;28;20045;-71
2023/10/08 01:56:55;;;;;;;1.40;0.85;;;15.10;70.00;;;;;;4999440;28;20116;-71
2023/10/08 01:59:21;;;;;;;7.78;1.80;;;15.20;70.00;;;;;;5032784;28;20037;-71
2023/10/08 02:01:47;;;;;;;4.10;1.60;;;15.20;69.90;;;;;;5032967;28;20050;-70
2023/10/08 02:04:16;;;;;;;3.17;2.15;;;15.20;69.80;;;;;;5033735;28;20057;-70
2023/10/08 02:06:42;;;;;;;2.38;1.65;;;15.20;70.00;;;;;;5015776;28;20033;-71
2023/10/08 02:09:09;;;;;;;1.58;1.08;;;15.10;70.30;;;;;;5016241;28;20038;-71
2023/10/08 02:11:54;;;;;;;1.13;0.65;;;15.10;70.30;;;;;;5032644;28;20033;-70
2023/10/08 02:14:22;;;;;;;2.30;1.25;;;15.00;70.70;;;;;;5033878;28;20041;-71
2023/10/08 02:16:49;;;;;;;2.85;1.23;;;15.00;70.40;;;;;;5033080;28;20034;-70
2023/10/08 02:19:26;;;;;;;1.13;0.30;;;15.00;70.50;;;;;;5016041;28;20496;-71
2023/10/08 02:21:54;;;;;;;;;;;15.00;70.70;;;;;;5015531;28;20045;-70
2023/10/08 02:24:23;;;;;;;2.13;1.58;;;15.00;70.50;;;;;;5015859;28;19920;-71
2023/10/08 02:27:10;;;;;;;3.00;0.93;;;14.90;70.70;;;;;;5032715;28;20033;-71
2023/10/08 02:29:36;;;;;;;1.30;0.87;;;14.80;70.90;;;;;;5032199;28;20041;-71
2023/10/08 02:32:04;;;;;;;;;;;14.80;71.30;;;;;;5032982;28;20034;-71
2023/10/08 02:34:30;;;;;;;1.20;0.80;;;14.70;71.40;;;;;;5015661;28;19956;-71
2023/10/08 02:36:56;;;;;;;1.20;0.63;;;14.70;71.50;;;;;;5015001;28;20029;-71
2023/10/08 02:39:25;;;;;;;1.65;0.85;;;14.70;71.50;;;;;;5031960;28;20045;-71
2023/10/08 02:41:54;;;;;;;3.42;1.60;;;14.60;71.50;;;;;;5014843;28;20029;-71
2023/10/08 02:44:20;;;;;;;0.68;0.57;;;14.60;71.30;;;;;;5015441;28;20047;-70
2023/10/08 02:46:49;;;;;;;2.00;0.70;;;14.60;71.50;;;;;;5032381;28;20045;-71
2023/10/08 02:49:20;;;;;;;1.77;1.42;;;14.60;71.50;;;;;;5015400;28;20037;-71
2023/10/08 02:51:50;;;;;;;2.38;1.17;;;14.60;71.30;;;;;;5030711;28;20041;-71
2023/10/08 02:57:10;;;;;;;1.02;0.63;;;14.60;71.10;;;;;;5031531;28;20107;-71
2023/10/08 02:59:40;;;;;;;2.13;1.70;;;14.60;70.80;;;;;;5016392;28;20048;-71
2023/10/08 03:02:24;;;;;;;1.38;0.95;;;14.60;71.40;;;;;;5014885;28;20054;-71
2023/10/08 03:04:52;;;;;;;0.68;0.52;;;14.60;71.10;;;;;;5031325;28;20041;-71
2023/10/08 03:07:26;;;;;;;1.00;0.68;;;14.70;71.60;;;;;;5032266;28;20054;-70
2023/10/08 03:10:03;;;;;;;2.63;1.30;;;14.60;71.30;;;;;;5031659;28;20044;-70
2023/10/08 03:12:33;;;;;;;1.25;1.05;;;14.60;71.40;;;;;;5030889;28;22000;-71
2023/10/08 03:15:14;;;;;;;0.85;0.77;;;14.60;71.30;;;;;;5032845;28;20395;-71
2023/10/08 03:17:51;;;;;;;2.17;1.08;;;14.60;71.30;;;;;;5014574;28;20022;-71
2023/10/08 03:23:07;;;;;;;3.80;1.73;;;14.60;71.10;;;;;;5032337;28;20071;-71
2023/10/08 03:25:41;;;;;;;4.13;1.95;;;14.50;71.30;;;;;;5031763;28;20034;-71
2023/10/08 03:28:27;;;;;;;2.55;1.00;;;14.50;71.30;;;;;;5032394;28;20045;-71
2023/10/08 03:31:03;;;;;;;2.40;1.67;;;14.50;71.40;;;;;;5013739;28;20063;-71
2023/10/08 03:33:39;;;;;;;1.25;1.00;;;14.50;71.20;;;;;;5015674;28;20552;-71
2023/10/08 03:38:57;;;;;;;1.70;1.05;;;14.50;71.10;;;;;;5030811;28;20122;-71
2023/10/08 03:41:29;;;;;;;1.08;0.63;;;14.50;71.30;;;;;;5031074;28;20550;-71
2023/10/08 03:44:01;;;;;;;3.22;1.73;;;14.50;71.80;;;;;;5015225;28;20504;-71
2023/10/08 03:46:28;;;;;;;2.17;1.58;;;14.50;71.60;;;;;;5030373;28;20026;-71
2023/10/08 03:48:57;;;;;;;0.73;0.40;;;14.60;71.60;;;;;;5032216;28;20072;-70
2023/10/08 03:51:27;;;;;;;1.65;0.52;;;14.60;71.60;;;;;;5030911;28;20061;-70
2023/10/08 03:56:36;;;;;;;1.42;0.75;;;14.60;71.40;;;;;;5031433;28;20036;-70
2023/10/08 03:59:31;;;;;;;0.73;0.60;;;14.60;72.00;;;;;;5014214;28;20053;-70
2023/10/08 04:02:14;;;;;;;0.95;0.57;;;14.60;71.90;;;;;;5031030;28;20045;-71
2023/10/08 04:08:04;;;;;;;1.23;1.13;;;14.70;71.60;;;;;;5031839;28;20029;-71
2023/10/08 04:13:12;;;;;;;1.30;0.85;;;14.70;71.70;;;;;;5014027;28;20069;-70
2023/10/08 04:18:23;;;;;;;0.95;0.70;;;14.60;71.60;;;;;;5034693;28;20584;-71
2023/10/08 04:21:04;;;;;;;1.35;1.23;;;14.70;72.30;;;;;;5033756;28;20041;-70
2023/10/08 04:23:31;;;;;;;0.93;0.65;;;14.70;72.20;;;;;;5017809;28;20415;-71
2023/10/08 04:25:57;;;;;;;3.67;1.35;;;14.60;72.30;;;;;;5017589;28;20041;-71
2023/10/08 04:28:28;;;;;;;4.50;0.95;;;14.70;72.40;;;;;;5035677;28;20043;-71
2023/10/08 04:31:00;;;;;;;1.20;1.08;;;14.70;72.30;;;;;;5017640;28;20037;-71
2023/10/08 04:33:30;;;;;;;1.25;0.50;;;14.70;72.20;;;;;;5035502;28;20049;-70
2023/10/08 04:35:58;;;;;;;0.40;0.30;;;14.60;72.20;;;;;;5017770;28;20021;-71
2023/10/08 04:38:26;;;;;;;0.80;0.57;;;14.60;72.30;;;;;;5035192;28;20121;-70
2023/10/08 04:40:52;;;;;;;1.77;1.27;;;14.70;72.00;;;;;;5016956;28;20494;-71
2023/10/08 04:43:42;;;;;;;1.10;0.82;;;14.60;72.40;;;;;;5017529;28;20396;-70
2023/10/08 04:48:53;;;;;;;1.75;0.95;;;14.60;71.90;;;;;;5035601;28;20064;-70
2023/10/08 04:51:21;;;;;;;1.00;0.68;;;14.60;72.30;;;;;;5016735;28;20037;-70
2023/10/08 04:53:47;;;;;;;1.65;0.95;;;14.60;72.50;;;;;;5035219;28;20053;-70
2023/10/08 04:56:18;;;;;;;1.70;0.65;;;14.60;72.40;;;;;;5034759;28;20537;-71
2023/10/08 04:58:46;;;;;;;1.70;0.85;;;14.60;72.30;;;;;;5033963;28;20045;-71
2023/10/08 05:10:10;;;;;;;1.17;0.75;;;14.60;72.50;;;;;;5018107;28;20033;-71
2023/10/08 05:12:37;;;;;;;0.73;0.50;;;14.60;72.50;;;;;;5016602;28;20571;-71
2023/10/08 05:17:58;;;;;;;1.30;1.08;;;14.60;72.60;;;;;;5018612;28;20068;-71
2023/10/08 05:26:20;;;;;;;3.20;0.75;;;14.60;72.40;;;;;;5033256;28;20045;-71
2023/10/08 05:29:03;;;;;;;2.88;1.10;;;14.60;72.20;;;;;;5020174;28;20220;-71
2023/10/08 05:34:16;;;;;;;1.58;1.30;;;14.70;72.40;;;;;;5019374;28;20588;-70
2023/10/08 05:39:55;;;;;;;2.13;0.88;;;14.80;72.10;;;;;;5050477;28;20044;-70
2023/10/08 05:42:31;;;;;;;1.23;1.00;;;14.80;72.20;;;;;;5051243;28;20041;-71
2023/10/08 05:47:41;;;;;;;1.73;1.17;;;15.00;72.50;;;;;;5038321;28;20028;-71
2023/10/08 05:55:34;;;;;;;0.85;0.52;;;15.10;72.60;;;;;;5046971;28;20037;-71
2023/10/08 06:03:32;;;;;;;4.90;0.68;;;15.20;73.00;;;;;;5038855;28;20117;-70
2023/10/08 06:14:16;;;;;;;0.22;0.22;;;15.50;72.90;;;;;;5038130;28;20144;-71
2023/10/08 06:19:49;;;;;;;1.05;0.65;;;15.80;72.30;;;;;;5053835;28;20052;-71
2023/10/08 06:22:15;;;;;;;0.68;0.57;;;15.80;72.20;;;;;;5052412;28;20037;-70
2023/10/08 06:24:41;;;;;;;2.88;1.40;;;15.90;72.20;;;;;;5035710;28;20033;-71
2023/10/08 06:27:07;;;;;;;1.50;0.75;;;16.00;72.20;;;;;;5052910;28;20037;-71
2023/10/08 06:29:33;;;;;;;1.70;1.05;;;16.10;72.60;;;;;;5035450;28;20037;-70
2023/10/08 06:32:02;;;;;;;1.90;1.30;;;16.10;72.50;;;;;;5034276;28;20029;-70
2023/10/08 06:34:29;;;;;;;1.42;0.98;;;16.20;72.30;;;;;;5035794;28;20084;-71
2023/10/08 06:36:58;;;;;;;2.10;1.23;;;16.30;72.10;;;;;;5034816;28;20478;-71
2023/10/08 06:39:32;;;;;;;2.35;1.42;;;16.30;72.10;;;;;;5052882;28;20494;-70
2023/10/08 06:41:59;;;;;;;2.15;1.25;;;16.30;72.10;;;;;;5035378;28;20116;-71
2023/10/08 06:44:27;;;;;;;0.98;0.63;;;16.30;72.20;;;;;;5035292;28;20086;-71
2023/10/08 06:46:55;;;;;;;1.25;0.95;;;16.30;72.40;;;;;;5034915;28;20405;-70
2023/10/08 06:49:25;;;;;;;0.88;0.85;;;16.40;72.70;;;;;;5035424;28;20053;-71
2023/10/08 06:51:53;;;;;;;1.17;0.85;;;16.40;73.20;;;;;;5017872;28;20112;-70
2023/10/08 06:54:19;;;;;;;3.33;1.00;;;16.40;72.70;;;;;;5034711;28;20447;-70
2023/10/08 06:56:46;;;;;;;2.58;1.38;;;16.40;73.30;;;;;;5052311;28;20040;-71
2023/10/08 06:59:31;;;;;;;1.23;0.88;;;16.40;72.90;;;;;;5035153;28;20111;-70
2023/10/08 07:01:58;;;;;;;2.50;1.52;;;16.40;74.00;;;;;;5051617;28;20040;-70
2023/10/08 07:04:25;;;;;;;0.85;0.60;;;16.50;73.90;;;;;;5035100;28;20051;-71
2023/10/08 07:06:51;;;;;;;0.85;0.70;;;16.50;73.70;;;;;;5052092;28;20402;-71
2023/10/08 07:12:06;;;;;;;1.85;0.70;;;16.60;72.80;;;;;;5036847;28;20052;-71
2023/10/08 07:14:33;;;;;;;1.33;0.88;;;16.70;74.40;;;;;;5052589;28;20029;-71
2023/10/08 07:17:00;;;;;;;1.42;0.70;;;16.70;73.30;;;;;;5052044;28;20397;-70
2023/10/08 07:19:50;;;;;;;2.50;1.27;;;16.90;72.70;;;;;;5034574;28;20033;-70
2023/10/08 07:22:22;;;;;;;2.80;1.50;;;17.00;72.70;;;;;;5034275;28;20111;-70
2023/10/08 07:24:50;;;;;;;2.50;1.52;;;17.10;72.60;;;;;;5035528;28;20045;-71
2023/10/08 07:27:21;;;;;;;1.30;0.98;;;17.30;72.10;;;;;;5051782;28;20490;-71
2023/10/08 07:29:48;;;;;;;1.08;0.68;;;17.40;71.50;;;;;;5052801;28;20037;-71
2023/10/08 07:32:18;;;;;;;2.47;1.60;;;17.50;71.00;;;;;;5033366;28;20110;-71
2023/10/08 07:34:45;;;;;;;0.88;0.70;;;17.60;70.60;;;;;;5052468;28;20577;-71
2023/10/08 07:37:11;;;;;;;0.88;0.82;;;17.70;69.60;;;;;;5032879;28;20421;-70
2023/10/08 07:39:46;;;;;;;3.88;1.65;;;17.90;69.40;;;;;;5033703;28;20036;-71
2023/10/08 07:42:13;;;;;;;1.73;0.68;;;18.10;69.00;;;;;;5050971;28;20037;-71
2023/10/08 07:44:39;;;;;;;1.27;1.02;;;18.30;68.60;;;;;;5034121;28;20044;-71
2023/10/08 07:47:13;;;;;;;;;;;18.50;67.70;;;;;;5033950;28;20108;-71
2023/10/08 07:49:43;;;;;;;0.82;0.75;;;18.90;68.00;;;;;;5035306;28;19951;-71
2023/10/08 07:52:09;;;;;;;1.48;1.05;;;19.90;63.70;;;;;;5048983;28;20425;-70
2023/10/08 07:54:35;;;;;;;;;;;21.10;60.80;;;;;;5051129;28;20052;-70
2023/10/08 07:59:47;;;;;;;0.93;0.60;;;22.50;56.20;;;;;;5056529;28;20120;-71
2023/10/08 08:02:17;;;;;;;;;;;22.90;56.20;;;;;;5048725;28;20125;-71
2023/10/08 08:04:45;;;;;;;2.30;1.40;;;23.30;56.30;;;;;;5034327;28;20304;-70
2023/10/08 08:07:15;;;;;;;4.05;1.48;;;23.80;54.00;;;;;;5033645;28;20056;-71
2023/10/08 08:09:50;;;;;;;2.90;0.82;;;24.20;52.80;;;;;;5034562;28;20442;-71
2023/10/08 08:12:21;;;;;;;0.47;0.38;;;24.70;50.90;;;;;;5034185;28;20037;-71
2023/10/08 08:14:48;;;;;;;2.10;0.93;;;25.50;48.50;;;;;;5017421;28;20540;-71
2023/10/08 08:17:33;;;;;;;0.50;0.43;;;26.50;45.50;;;;;;5051164;28;20024;-70
2023/10/08 08:20:06;;;;;;;2.10;1.73;;;27.20;44.40;;;;;;5042927;28;20029;-71
2023/10/08 08:22:32;;;;;;;2.47;1.73;;;27.20;42.80;;;;;;5033314;28;20565;-71
2023/10/08 08:27:46;;;;;;;3.08;1.77;;;27.70;40.80;;;;;;5036541;28;20556;-71
2023/10/08 08:30:16;;;;;;;2.33;1.77;;;27.80;40.20;;;;;;5033105;28;20029;-71
2023/10/08 08:32:44;;;;;;;1.70;1.27;;;28.10;40.40;;;;;;5017385;28;20025;-71
2023/10/08 08:35:16;;;;;;;0.98;0.70;;;28.80;38.00;;;;;;5051037;28;20438;-71
2023/10/08 08:37:42;;;;;;;2.50;0.82;;;29.60;36.60;;;;;;5034207;28;20087;-71
2023/10/08 08:42:58;;;;;;;1.40;1.00;;;31.20;33.40;;;;;;5033153;28;20048;-71
2023/10/08 08:45:24;;;;;;;1.17;1.02;;;32.10;32.40;;;;;;5050043;28;20045;-71
2023/10/08 08:47:55;;;;;;;1.85;1.25;;;32.80;29.70;;;;;;5071102;28;20032;-71
2023/10/08 08:50:22;;;;;;;2.05;1.13;;;33.40;29.40;;;;;;5052984;28;20029;-71
2023/10/08 08:52:48;;;;;;;1.45;0.90;;;33.90;28.10;;;;;;5052191;28;20036;-71
2023/10/08 08:55:16;;;;;;;0.60;0.50;;;34.30;27.70;;;;;;5052737;28;20040;-71
2023/10/08 08:57:44;;;;;;;1.77;1.38;;;34.80;26.00;;;;;;5053603;28;20104;-71
2023/10/08 09:00:13;;;;;;;0.85;0.73;;;35.00;26.50;;;;;;5070042;28;20060;-72
2023/10/08 09:02:40;;;;;;;1.38;0.63;;;35.50;25.50;;;;;;5054189;28;20107;-71
2023/10/08 09:08:03;;;;;;;0.93;0.60;;;36.30;24.40;;;;;;5074938;28;20036;-71
2023/10/08 09:10:36;;;;;;;2.90;1.92;;;36.40;24.10;;;;;;5056364;28;20086;-71
2023/10/08 09:13:22;;;;;;;0.75;0.60;;;36.70;23.10;;;;;;5057421;28;20049;-71
2023/10/08 09:15:50;;;;;;;1.55;1.30;;;35.60;25.00;;;;;;5056684;28;20031;-70
2023/10/08 09:18:16;;;;;;;1.30;0.75;;;34.60;26.30;;;;;;5056759;28;20040;-71
2023/10/08 09:20:43;;;;;;;1.42;0.95;;;34.00;27.40;;;;;;5073392;28;20523;-71
2023/10/08 09:23:31;;;;;;;1.08;0.88;;;33.30;28.20;;;;;;5056563;28;20057;-71
2023/10/08 09:26:02;;;;;;;1.95;0.60;;;32.50;28.60;;;;;;5074046;28;20033;-71
2023/10/08 09:28:28;;;;;;;0.63;0.50;;;31.80;29.30;;;;;;5056852;28;20480;-71
2023/10/08 09:30:58;;;;;;;0.70;0.70;;;31.40;30.30;;;;;;5073593;28;20040;-71
2023/10/08 09:33:25;;;;;;;1.38;0.80;;;30.90;30.40;;;;;;5074376;28;20170;-71
2023/10/08 09:35:55;;;;;;;0.50;0.50;;;30.80;30.90;;;;;;5073897;28;20024;-71
2023/10/08 09:38:23;;;;;;;8.27;1.23;;;30.60;31.40;;;;;;5040105;28;20594;-71
2023/10/08 09:40:53;;;;;;;2.38;1.63;;;30.50;32.20;;;;;;5034605;28;20418;-70
2023/10/08 09:43:19;;;;;;;2.08;1.35;;;30.30;32.40;;;;;;5030289;28;20397;-70
2023/10/08 09:46:27;;;;;;;1.15;0.90;;;30.00;32.80;;;;;;5051777;28;20086;-71
2023/10/08 09:49:01;;;;;;;0.93;0.60;;;29.80;32.90;;;;;;5052725;28;20036;-71
2023/10/08 09:51:31;;;;;;;1.45;1.23;;;29.70;33.40;;;;;;5052986;28;20033;-70
2023/10/08 09:54:22;;;;;;;4.05;1.48;;;29.70;33.00;;;;;;5052878;28;20049;-71
2023/10/08 09:56:48;;;;;;;1.58;0.82;;;30.20;31.90;;;;;;5052319;28;20079;-71
2023/10/08 09:59:15;;;;;;;1.95;1.55;;;29.90;33.10;;;;;;5036425;28;20061;-71
2023/10/08 10:01:43;;;;;;;1.75;0.60;;;29.50;33.60;;;;;;5051402;28;20037;-71
2023/10/08 10:04:11;;;;;;;1.48;0.70;;;29.20;34.50;;;;;;5036036;28;20120;-71
2023/10/08 10:06:37;;;;;;;0.75;0.75;;;29.10;34.70;;;;;;5035551;28;20090;-71
2023/10/08 10:09:15;;;;;;;0.52;0.52;;;29.00;35.60;;;;;;5035897;28;20423;-71
2023/10/08 10:11:49;;;;;;;0.90;0.77;;;28.80;34.10;;;;;;5051716;28;20129;-71
2023/10/08 10:14:17;;;;;;;0.47;0.40;;;28.80;35.10;;;;;;5035112;28;20134;-71
2023/10/08 10:16:49;;;;;;;0.77;0.65;;;28.80;34.80;;;;;;5052982;28;20025;-72
2023/10/08 10:19:36;;;;;;;1.33;0.60;;;28.80;34.60;;;;;;5035935;28;20120;-71
2023/10/08 10:22:03;;;;;;;1.00;0.77;;;28.80;34.40;;;;;;5051321;28;20037;-71
2023/10/08 10:24:47;;;;;;;1.40;0.65;;;29.10;34.90;;;;;;5053758;28;20131;-71
2023/10/08 10:27:15;;;;;;;4.53;1.00;;;29.40;35.10;;;;;;5053143;28;20036;-70
2023/10/08 10:30:19;;;;;;;2.38;0.85;;;29.30;35.70;;;;;;5035262;28;20033;-70
2023/10/08 10:32:46;;;;;;;1.30;0.98;;;29.10;36.10;;;;;;5051565;28;20045;-71
2023/10/08 10:35:18;;;;;;;1.23;0.47;;;29.00;36.40;;;;;;5052743;28;20035;-70
2023/10/08 10:37:51;;;;;;;1.70;1.00;;;29.20;35.70;;;;;;5035133;28;20531;-71
2023/10/08 10:40:29;;;;;;;1.55;1.27;;;29.30;35.70;;;;;;5052206;28;20037;-71
2023/10/08 10:43:09;;;;;;;7.65;1.20;;;29.20;35.80;;;;;;5051881;28;20041;-70
2023/10/08 10:45:36;;;;;;;1.30;0.77;;;29.30;35.60;;;;;;5029056;28;20041;-71
2023/10/08 10:54:07;;;;;;;1.23;0.70;;;29.30;35.50;;;;;;5046007;28;20436;-71
2023/10/08 10:56:42;;;;;;;1.55;1.02;;;29.30;35.30;;;;;;5036847;28;20029;-70
2023/10/08 10:59:27;;;;;;;3.28;1.90;;;29.40;34.80;;;;;;5053066;28;20049;-71
2023/10/08 11:02:20;;;;;;;2.15;1.52;;;29.40;34.90;;;;;;5051834;28;20079;-71
2023/10/08 11:04:47;;;;;;;0.95;0.88;;;29.50;35.30;;;;;;5053048;28;20037;-72
2023/10/08 11:07:17;;;;;;;1.30;0.82;;;29.50;35.10;;;;;;5034431;28;20111;-71
2023/10/08 11:12:42;;;;;;;1.90;1.33;;;29.60;34.30;;;;;;5049579;28;20086;-71
2023/10/08 11:15:40;;;;;;;1.33;1.08;;;29.60;34.80;;;;;;5035789;28;20072;-71
2023/10/08 11:18:27;;;;;;;2.85;1.08;;;29.60;34.90;;;;;;5051964;28;20037;-71
2023/10/08 11:21:13;;;;;;;2.15;1.40;;;29.60;34.60;;;;;;5051226;28;20040;-71
2023/10/08 11:24:08;;;;;;;0.67;0.67;;;29.60;35.70;;;;;;5052264;28;20056;-71
2023/10/08 11:29:38;;;;;;;0.47;0.32;;;30.00;35.50;;;;;;5052612;28;20448;-71
2023/10/08 11:32:07;;;;;;;0.82;0.65;;;30.10;35.70;;;;;;5033604;28;20393;-71
2023/10/08 11:38:01;;;;;;;0.40;0.40;;;30.30;35.80;;;;;;5037258;28;20082;-70
2023/10/08 11:43:15;;;;;;;1.45;0.98;;;30.50;35.60;;;;;;5052220;28;20428;-70
2023/10/08 11:45:48;;;;;;;0.85;0.43;;;30.70;33.40;;;;;;5051405;28;20061;-71
2023/10/08 11:48:21;;;;;;;0.50;0.50;;;30.70;32.90;;;;;;5050951;28;20434;-70
2023/10/08 11:50:50;;;;;;;1.85;1.38;;;30.70;32.50;;;;;;5049831;28;20040;-71
2023/10/08 11:53:19;;;;;;;1.38;1.02;;;31.30;32.80;;;;;;5049234;28;20045;-71
2023/10/08 11:55:47;;;;;;;1.23;0.63;;;31.60;31.80;;;;;;5051296;28;20025;-71
2023/10/08 11:58:17;;;;;;;3.03;0.68;;;31.60;32.60;;;;;;5034273;28;20494;-71
2023/10/08 12:00:45;;;;;;;1.65;0.88;;;31.70;32.40;;;;;;5016700;28;20431;-70
2023/10/08 12:03:29;;;;;;;1.10;1.00;;;31.70;32.70;;;;;;5017579;28;20486;-70
2023/10/08 12:05:59;;;;;;;1.15;0.45;;;31.50;33.50;;;;;;5051375;28;20116;-70
2023/10/08 12:08:27;;;;;;;1.23;0.63;;;31.30;33.90;;;;;;5051642;28;20049;-71
2023/10/08 12:10:54;;;;;;;1.75;1.23;;;31.30;34.30;;;;;;5032148;28;20501;-70
2023/10/08 12:13:24;;;;;;;0.93;0.40;;;31.20;34.70;;;;;;5051598;28;20051;-71
2023/10/08 12:16:12;;;;;;;2.00;1.15;;;31.00;35.30;;;;;;5033640;28;20510;-70
2023/10/08 12:18:43;;;;;;;2.97;1.20;;;30.80;35.20;;;;;;5051726;28;20037;-71
2023/10/08 12:21:15;;;;;;;0.68;0.43;;;30.60;35.10;;;;;;5033578;28;20034;-71
2023/10/08 12:23:51;;;;;;;0.30;0.30;;;30.70;35.40;;;;;;5051743;28;20087;-70
2023/10/08 12:26:20;;;;;;;1.40;0.60;;;30.80;35.40;;;;;;5034802;28;20025;-70
2023/10/08 12:28:50;;;;;;;2.38;1.50;;;31.00;35.70;;;;;;5050378;28;20379;-71
2023/10/08 12:31:37;;;;;;;2.55;1.77;;;31.30;35.20;;;;;;5033432;28;20057;-71
2023/10/08 12:34:04;;;;;;;0.30;0.30;;;31.50;34.80;;;;;;5033955;28;20490;-71
2023/10/08 12:36:36;;;;;;;1.27;0.85;;;31.60;34.10;;;;;;5051040;28;20059;-71
2023/10/08 12:39:15;;;;;;;0.35;0.32;;;31.70;33.70;;;;;;5038409;28;20037;-71
2023/10/08 12:42:04;;;;;;;0.47;0.47;;;31.90;33.30;;;;;;5054499;28;20037;-71
2023/10/08 12:44:33;;;;;;;1.45;1.17;;;32.10;34.60;;;;;;5053430;28;20064;-71
2023/10/08 12:46:59;;;;;;;1.65;1.27;;;32.20;32.90;;;;;;5054792;28;20021;-72
2023/10/08 12:49:27;;;;;;;2.75;1.67;;;32.30;32.50;;;;;;5037419;28;20072;-71
2023/10/08 12:51:53;;;;;;;3.00;0.80;;;32.30;33.10;;;;;;5036862;28;20040;-71
2023/10/08 12:54:23;;;;;;;0.95;0.77;;;32.50;32.40;;;;;;5037092;28;20044;-71
2023/10/08 12:56:54;;;;;;;2.20;1.25;;;32.60;31.80;;;;;;5037417;28;20520;-71
2023/10/08 12:59:20;;;;;;;0.70;0.45;;;32.80;31.90;;;;;;5055362;28;20401;-71
2023/10/08 13:04:34;;;;;;;1.33;0.73;;;33.50;31.10;;;;;;5054897;28;20044;-71
2023/10/08 13:07:02;;;;;;;1.27;0.68;;;35.70;28.00;;;;;;5036992;28;20105;-71
2023/10/08 13:09:36;;;;;;;4.20;0.82;;;35.60;26.80;;;;;;5020723;28;20504;-71
2023/10/08 13:12:03;;;;;;;0.93;0.73;;;36.40;26.90;;;;;;5054011;28;20084;-71
2023/10/08 13:14:29;;;;;;;2.15;0.75;;;37.50;25.60;;;;;;5036876;28;20040;-71
2023/10/08 13:16:55;;;;;;;3.97;1.42;;;37.30;26.00;;;;;;5054597;28;20068;-71
2023/10/08 13:19:26;;;;;;;1.70;1.23;;;36.00;27.40;;;;;;5037054;28;20080;-71
2023/10/08 13:21:52;;;;;;;2.80;0.95;;;35.50;27.90;;;;;;5036391;28;20032;-71
2023/10/08 13:24:19;;;;;;;0.65;0.40;;;34.70;28.80;;;;;;5037031;28;20053;-71
2023/10/08 13:26:47;;;;;;;2.38;0.95;;;33.90;29.40;;;;;;5036222;28;20078;-71
2023/10/08 13:29:14;;;;;;;2.83;0.88;;;34.90;28.80;;;;;;5037292;28;20120;-72
2023/10/08 13:31:41;;;;;;;4.05;1.27;;;35.60;27.70;;;;;;5035709;28;20059;-71
2023/10/08 13:34:12;;;;;;;1.35;0.82;;;34.90;28.30;;;;;;5054594;28;20040;-70
2023/10/08 13:36:39;;;;;;;1.33;0.80;;;34.20;29.40;;;;;;5053902;28;20124;-71
2023/10/08 13:41:52;;;;;;;1.43;0.50;;;33.50;30.80;;;;;;5038193;28;20049;-71
2023/10/08 13:44:26;;;;;;;2.50;0.47;;;33.80;30.20;;;;;;5036755;28;20058;-71
2023/10/08 13:46:57;;;;;;;1.73;1.23;;;33.90;30.60;;;;;;5020301;28;20033;-71
2023/10/08 13:49:23;;;;;;;2.35;1.30;;;35.00;29.70;;;;;;5019183;28;20477;-71
2023/10/08 13:51:55;;;;;;;2.58;1.45;;;36.30;28.90;;;;;;5053001;28;20498;-71
2023/10/08 13:54:25;;;;;;;0.85;0.82;;;37.40;26.70;;;;;;5054294;28;20124;-72
2023/10/08 13:56:51;;;;;;;1.50;1.02;;;37.40;25.80;;;;;;5053241;28;20028;-71
2023/10/08 13:59:17;;;;;;;3.35;1.02;;;38.30;25.00;;;;;;5054283;28;20045;-71
2023/10/08 14:01:51;;;;;;;1.75;0.88;;;38.00;25.10;;;;;;5053021;28;20033;-71
2023/10/08 14:04:19;;;;;;;1.10;0.82;;;38.10;25.50;;;;;;5052675;28;20052;-70
2023/10/08 14:06:52;;;;;;;1.67;0.93;;;38.90;24.60;;;;;;5050838;28;20037;-71
2023/10/08 14:09:30;;;;;;;0.73;0.50;;;38.80;24.50;;;;;;5051113;28;20540;-71
2023/10/08 14:11:57;;;;;;;0.57;0.32;;;38.10;24.40;;;;;;5034591;28;20041;-71
2023/10/08 14:14:24;;;;;;;1.27;1.15;;;37.30;25.60;;;;;;5035951;28;20183;-71
2023/10/08 14:19:59;;;;;;;0.75;0.60;;;38.80;23.20;;;;;;5053792;28;20119;-72
2023/10/08 14:22:26;;;;;;;2.85;0.60;;;39.70;23.30;;;;;;5035556;28;20095;-71
2023/10/08 14:24:59;;;;;;;1.42;1.27;;;40.30;22.30;;;;;;5035973;28;20061;-71
2023/10/08 14:27:33;;;;;;;0.95;0.88;;;41.00;22.00;;;;;;5052913;28;20482;-71
2023/10/08 14:30:01;;;;;;;1.55;1.08;;;41.70;20.60;;;;;;5036187;28;20060;-72
2023/10/08 14:32:46;;;;;;;1.73;1.63;;;42.00;20.10;;;;;;5052455;28;20406;-71
2023/10/08 14:43:45;;;;;;;1.45;0.77;;;41.40;20.40;;;;;;5053497;28;20461;-71
2023/10/08 14:46:11;;;;;;;1.73;1.08;;;40.00;21.50;;;;;;5035093;28;20032;-71
2023/10/08 14:48:37;;;;;;;2.10;0.85;;;38.80;22.10;;;;;;5035288;28;20079;-72
2023/10/08 14:51:06;;;;;;;1.55;1.42;;;37.70;22.80;;;;;;5022328;28;20052;-71
2023/10/08 14:53:34;;;;;;;0.77;0.73;;;37.20;23.60;;;;;;5024132;28;20056;-72
2023/10/08 14:56:04;;;;;;;1.10;0.60;;;36.90;24.50;;;;;;5048573;28;20029;-72
2023/10/08 14:58:31;;;;;;;0.80;0.73;;;36.70;25.00;;;;;;5027528;28;20095;-71
2023/10/08 15:00:57;;;;;;;1.23;0.95;;;37.60;25.00;;;;;;5031534;28;20045;-71
2023/10/08 15:03:24;;;;;;;1.00;0.70;;;38.20;24.60;;;;;;5021803;28;20441;-71
2023/10/08 15:05:50;;;;;;;2.58;1.88;;;38.60;23.70;;;;;;5014760;28;20068;-71
2023/10/08 15:08:18;;;;;;;3.35;1.63;;;39.00;23.40;;;;;;5052722;28;20104;-72
2023/10/08 15:10:46;;;;;;;1.15;0.75;;;38.60;23.40;;;;;;5033044;28;20037;-71
2023/10/08 15:13:12;;;;;;;2.00;1.27;;;38.40;23.30;;;;;;5050992;28;20053;-72
2023/10/08 15:15:39;;;;;;;1.13;0.60;;;38.20;23.20;;;;;;5051960;28;20040;-72
2023/10/08 15:18:06;;;;;;;1.65;0.90;;;38.00;23.30;;;;;;5034787;28;20087;-71
2023/10/08 15:20:33;;;;;;;3.00;1.25;;;37.30;23.20;;;;;;5051297;28;20040;-71
2023/10/08 15:23:00;;;;;;;4.85;0.88;;;36.30;23.70;;;;;;5052231;28;20148;-71
2023/10/08 15:25:26;;;;;;;0.50;0.50;;;35.40;24.70;;;;;;5017324;28;20032;-72
2023/10/08 15:27:52;;;;;;;0.85;0.55;;;34.80;25.50;;;;;;5033053;28;20033;-72